Time;durP1;ratioP1;P1;durP2;ratioP2;P2;SDS_P1;SDS_P2;PMS_P1;PMS_P2;Temp;Humidity;BMP_temperature;BMP_pressure;BME280_temperature;BME280_humidity;BME280_pressure;Samples;Min_cycle;Max_cycle;Signal;HPM_P1;HPM_P2
2022/10/16 00:02:11;;;;;;;19.23;4.43;;;12.20;99.90;;;;;;5035853;28;20405;-59
2022/10/16 00:04:38;;;;;;;19.38;4.10;;;12.20;99.90;;;;;;5035943;28;20419;-59
2022/10/16 00:07:05;;;;;;;16.70;3.35;;;12.20;99.90;;;;;;5036556;28;20045;-57
2022/10/16 00:09:31;;;;;;;19.48;3.30;;;12.20;99.90;;;;;;5036165;28;20099;-57
2022/10/16 00:11:58;;;;;;;19.35;3.22;;;12.20;99.90;;;;;;5035867;28;20124;-57
2022/10/16 00:14:25;;;;;;;21.90;3.58;;;12.20;99.90;;;;;;5035833;28;20041;-56
2022/10/16 00:16:52;;;;;;;25.17;3.97;;;12.20;99.90;;;;;;5035737;28;20263;-56
2022/10/16 00:19:18;;;;;;;24.77;4.38;;;12.20;99.90;;;;;;5035798;28;20056;-56
2022/10/16 00:21:45;;;;;;;20.15;4.00;;;12.20;99.90;;;;;;5036131;28;20045;-57
2022/10/16 00:24:12;;;;;;;20.50;4.32;;;12.30;99.90;;;;;;5035422;28;20531;-56
2022/10/16 00:26:38;;;;;;;22.98;4.15;;;12.30;99.90;;;;;;5035920;28;20421;-57
2022/10/16 00:29:05;;;;;;;20.08;3.60;;;12.30;99.90;;;;;;5035180;28;20484;-56
2022/10/16 00:31:32;;;;;;;19.10;4.25;;;12.30;99.90;;;;;;5018037;28;20050;-57
2022/10/16 00:34:00;;;;;;;17.52;3.75;;;12.30;99.90;;;;;;5035217;28;20077;-59
2022/10/16 00:36:26;;;;;;;20.98;3.92;;;12.30;99.90;;;;;;5035316;28;20143;-58
2022/10/16 00:38:54;;;;;;;24.85;3.75;;;12.30;99.90;;;;;;5035458;28;20076;-58
2022/10/16 00:41:21;;;;;;;19.50;3.35;;;12.30;99.90;;;;;;5035704;28;20072;-57
2022/10/16 00:43:48;;;;;;;17.55;3.90;;;12.20;99.90;;;;;;5035517;28;20135;-56
2022/10/16 00:46:14;;;;;;;18.50;3.75;;;12.20;99.90;;;;;;5035667;28;20120;-55
2022/10/16 00:48:41;;;;;;;17.15;3.22;;;12.20;99.90;;;;;;5035167;28;20060;-59
2022/10/16 00:51:08;;;;;;;20.52;3.33;;;12.20;99.90;;;;;;5034827;28;20096;-57
2022/10/16 00:53:34;;;;;;;17.15;3.10;;;12.10;99.90;;;;;;5034937;28;20504;-58
2022/10/16 00:56:01;;;;;;;16.80;3.25;;;12.10;99.90;;;;;;5035279;28;20071;-58
2022/10/16 00:58:28;;;;;;;20.15;3.53;;;12.10;99.90;;;;;;5034946;28;20045;-59
2022/10/16 01:00:55;;;;;;;21.08;3.03;;;12.10;99.90;;;;;;5034745;28;20052;-58
2022/10/16 01:03:21;;;;;;;17.75;3.17;;;12.10;99.90;;;;;;5034779;28;20030;-59
2022/10/16 01:05:50;;;;;;;17.15;3.50;;;12.00;99.90;;;;;;5034671;28;20041;-57
2022/10/16 01:08:17;;;;;;;17.25;3.03;;;12.00;99.90;;;;;;5034667;28;20492;-57
2022/10/16 01:10:44;;;;;;;17.63;3.45;;;12.00;99.90;;;;;;5034728;28;20380;-56
2022/10/16 01:13:10;;;;;;;16.30;3.75;;;12.00;99.90;;;;;;5034600;28;20046;-57
2022/10/16 01:15:37;;;;;;;18.50;4.50;;;12.00;99.90;;;;;;5035315;28;20417;-55
2022/10/16 01:18:09;;;;;;;20.98;3.85;;;12.00;99.90;;;;;;5034602;28;20042;-59
2022/10/16 01:20:37;;;;;;;14.73;2.83;;;11.90;99.90;;;;;;5034469;28;20038;-61
2022/10/16 01:23:04;;;;;;;14.38;3.42;;;11.90;99.90;;;;;;5034756;28;20041;-59
2022/10/16 01:25:31;;;;;;;18.13;3.30;;;11.90;99.90;;;;;;5034716;28;20038;-59
2022/10/16 01:27:58;;;;;;;14.32;2.78;;;11.90;99.90;;;;;;5034963;28;20038;-57
2022/10/16 01:30:25;;;;;;;14.93;2.85;;;11.90;99.90;;;;;;5034135;28;20099;-59
2022/10/16 01:32:51;;;;;;;18.35;3.85;;;11.90;99.90;;;;;;5034551;28;20088;-58
2022/10/16 01:35:18;;;;;;;15.25;3.38;;;11.90;99.90;;;;;;5034451;28;20041;-60
2022/10/16 01:37:45;;;;;;;17.85;3.92;;;11.90;99.90;;;;;;5034559;28;20045;-56
2022/10/16 01:40:11;;;;;;;17.25;3.08;;;11.90;99.90;;;;;;5034526;28;20045;-56
2022/10/16 01:42:38;;;;;;;25.77;3.90;;;11.90;99.90;;;;;;5034815;28;20077;-60
2022/10/16 01:45:07;;;;;;;17.73;3.50;;;11.90;99.90;;;;;;5016777;28;20099;-58
2022/10/16 01:47:34;;;;;;;17.75;3.38;;;11.90;99.90;;;;;;5034147;28;20461;-57
2022/10/16 01:50:01;;;;;;;25.23;3.47;;;11.90;99.90;;;;;;5034365;28;20404;-57
2022/10/16 01:52:27;;;;;;;18.95;3.67;;;11.90;99.90;;;;;;5034401;28;20120;-59
2022/10/16 01:54:55;;;;;;;23.75;3.63;;;12.00;99.90;;;;;;5033901;28;20033;-58
2022/10/16 01:57:21;;;;;;;16.90;3.58;;;12.00;99.90;;;;;;5034445;28;20045;-60
2022/10/16 01:59:48;;;;;;;19.02;3.50;;;12.10;99.90;;;;;;5033948;28;20119;-60
2022/10/16 02:02:15;;;;;;;25.98;3.95;;;12.10;99.90;;;;;;5033922;28;20041;-58
2022/10/16 02:04:42;;;;;;;24.02;3.90;;;12.20;99.90;;;;;;5034038;28;20124;-60
2022/10/16 02:07:08;;;;;;;21.13;3.80;;;12.20;99.90;;;;;;5034401;28;20556;-59
2022/10/16 02:09:35;;;;;;;18.20;3.25;;;12.30;99.90;;;;;;5033665;28;20113;-56
2022/10/16 02:12:02;;;;;;;17.27;3.40;;;12.30;99.90;;;;;;5034162;28;20436;-59
2022/10/16 02:14:29;;;;;;;20.52;3.22;;;12.30;99.90;;;;;;5034019;28;20076;-57
2022/10/16 02:16:56;;;;;;;18.10;3.10;;;12.30;99.90;;;;;;5033909;28;20060;-56
2022/10/16 02:19:22;;;;;;;19.65;3.60;;;12.40;99.90;;;;;;5033939;28;20123;-59
2022/10/16 02:21:49;;;;;;;21.55;3.47;;;12.40;99.90;;;;;;5033789;28;20065;-57
2022/10/16 02:24:16;;;;;;;14.85;3.17;;;12.30;99.90;;;;;;5033685;28;20048;-58
2022/10/16 02:26:42;;;;;;;18.30;3.35;;;12.40;99.90;;;;;;5034314;28;20069;-58
2022/10/16 02:29:09;;;;;;;11.35;2.60;;;12.40;99.90;;;;;;5033341;28;20458;-57
2022/10/16 02:31:36;;;;;;;14.63;2.55;;;12.30;99.90;;;;;;5033535;28;20096;-59
2022/10/16 02:34:03;;;;;;;16.95;3.28;;;12.30;99.90;;;;;;5016175;28;20095;-60
2022/10/16 02:36:30;;;;;;;16.58;2.90;;;12.20;99.90;;;;;;5033299;28;20048;-60
2022/10/16 02:38:56;;;;;;;17.15;2.85;;;12.20;99.90;;;;;;5033209;28;20046;-58
2022/10/16 02:41:23;;;;;;;11.35;2.60;;;12.10;99.90;;;;;;5033310;28;20552;-60
2022/10/16 02:43:50;;;;;;;16.27;2.90;;;12.10;99.90;;;;;;5033213;28;20041;-55
2022/10/16 02:46:17;;;;;;;16.35;3.13;;;12.00;99.90;;;;;;5016087;28;20069;-60
2022/10/16 02:48:43;;;;;;;22.08;3.17;;;12.00;99.90;;;;;;5033715;28;20044;-59
2022/10/16 02:51:10;;;;;;;12.00;2.33;;;12.00;99.90;;;;;;5033652;28;20100;-57
2022/10/16 02:53:37;;;;;;;19.17;3.70;;;11.90;99.90;;;;;;5033868;28;20428;-58
2022/10/16 02:56:03;;;;;;;13.07;3.20;;;11.90;99.90;;;;;;5033100;28;20068;-59
2022/10/16 02:58:30;;;;;;;16.52;2.90;;;11.80;99.90;;;;;;5033281;28;20436;-58
2022/10/16 03:00:57;;;;;;;12.85;2.90;;;11.80;99.90;;;;;;5015446;28;20041;-56
2022/10/16 03:03:24;;;;;;;14.75;2.42;;;11.80;99.90;;;;;;5033439;28;20056;-58
2022/10/16 03:05:50;;;;;;;14.02;2.90;;;11.70;99.90;;;;;;5033659;28;20536;-57
2022/10/16 03:08:23;;;;;;;16.85;2.75;;;11.70;99.90;;;;;;5016082;28;20077;-57
2022/10/16 03:10:49;;;;;;;14.98;2.83;;;11.70;99.90;;;;;;5033157;28;20037;-58
2022/10/16 03:13:16;;;;;;;15.52;2.50;;;11.60;99.90;;;;;;5034192;28;20447;-57
2022/10/16 03:15:43;;;;;;;15.77;3.08;;;11.60;99.90;;;;;;5037266;28;20125;-55
2022/10/16 03:18:09;;;;;;;13.57;2.50;;;11.60;99.90;;;;;;5037269;28;20049;-57
2022/10/16 03:20:36;;;;;;;14.45;2.58;;;11.60;99.90;;;;;;5037278;28;20095;-57
2022/10/16 03:23:03;;;;;;;16.67;2.72;;;11.50;99.90;;;;;;5036817;28;20068;-60
2022/10/16 03:25:30;;;;;;;14.55;3.03;;;11.50;99.90;;;;;;5037124;28;20099;-59
2022/10/16 03:27:56;;;;;;;12.35;2.53;;;11.50;99.90;;;;;;5037354;28;20345;-58
2022/10/16 03:30:23;;;;;;;18.88;3.05;;;11.50;99.90;;;;;;5019224;28;20058;-58
2022/10/16 03:32:53;;;;;;;19.58;3.85;;;11.40;99.90;;;;;;5036484;28;20048;-58
2022/10/16 03:35:20;;;;;;;13.48;2.38;;;11.40;99.90;;;;;;5037208;28;20068;-58
2022/10/16 03:37:47;;;;;;;16.90;2.90;;;11.40;99.90;;;;;;5036877;28;20120;-58
2022/10/16 03:40:14;;;;;;;14.77;2.83;;;11.40;99.90;;;;;;5036321;28;20041;-54
2022/10/16 03:42:40;;;;;;;15.55;3.05;;;11.40;99.90;;;;;;5036558;28;20475;-56
2022/10/16 03:45:07;;;;;;;12.98;3.30;;;11.40;99.90;;;;;;5018518;28;20045;-58
2022/10/16 03:47:34;;;;;;;14.07;2.75;;;11.40;99.90;;;;;;5036425;28;20544;-56
2022/10/16 03:50:00;;;;;;;17.38;2.33;;;11.40;99.90;;;;;;5036817;28;20058;-56
2022/10/16 03:52:27;;;;;;;12.90;2.35;;;11.40;99.90;;;;;;5036311;28;20096;-56
2022/10/16 03:54:54;;;;;;;12.68;2.55;;;11.40;99.90;;;;;;5036034;28;20045;-58
2022/10/16 03:57:20;;;;;;;12.82;2.60;;;11.40;99.90;;;;;;5035941;28;20045;-60
2022/10/16 03:59:47;;;;;;;19.63;3.45;;;11.30;99.90;;;;;;5036444;28;20424;-57
2022/10/16 04:02:14;;;;;;;20.48;3.42;;;11.30;99.90;;;;;;5018502;28;20103;-59
2022/10/16 04:04:41;;;;;;;18.83;2.70;;;11.30;99.90;;;;;;5035903;28;20120;-56
2022/10/16 04:07:07;;;;;;;12.93;3.00;;;11.30;99.90;;;;;;5035716;28;20156;-58
2022/10/16 04:09:34;;;;;;;12.32;2.00;;;11.40;99.90;;;;;;5035684;28;20045;-57
2022/10/16 04:12:01;;;;;;;15.38;2.65;;;11.40;99.90;;;;;;5035803;28;20064;-59
2022/10/16 04:14:27;;;;;;;17.42;2.75;;;11.40;99.90;;;;;;5036091;28;20084;-57
2022/10/16 04:16:54;;;;;;;13.40;3.05;;;11.40;99.90;;;;;;5035627;28;20092;-58
2022/10/16 04:19:21;;;;;;;15.70;2.60;;;11.40;99.90;;;;;;5035445;28;20045;-59
2022/10/16 04:21:48;;;;;;;21.13;3.72;;;11.40;99.90;;;;;;5035513;28;20046;-54
2022/10/16 04:24:14;;;;;;;17.23;2.70;;;11.40;99.90;;;;;;5035270;28;20045;-59
2022/10/16 04:26:41;;;;;;;12.15;2.35;;;11.40;99.90;;;;;;5034781;28;20124;-58
2022/10/16 04:29:08;;;;;;;19.23;3.17;;;11.40;99.90;;;;;;5035395;28;20485;-59
2022/10/16 04:31:34;;;;;;;11.07;2.55;;;11.30;99.90;;;;;;5036022;28;20099;-58
2022/10/16 04:34:01;;;;;;;15.25;2.42;;;11.40;99.90;;;;;;5035655;28;20141;-56
2022/10/16 04:36:28;;;;;;;17.42;2.92;;;11.30;99.90;;;;;;5035425;28;20071;-59
2022/10/16 04:38:55;;;;;;;18.88;2.95;;;11.40;99.90;;;;;;5035245;28;20072;-58
2022/10/16 04:41:21;;;;;;;13.60;2.70;;;11.30;99.90;;;;;;5035264;28;20045;-58
2022/10/16 04:43:48;;;;;;;17.50;2.80;;;11.30;99.90;;;;;;5035453;28;20476;-56
2022/10/16 04:46:15;;;;;;;13.95;2.60;;;11.30;99.90;;;;;;5035648;28;20112;-57
2022/10/16 04:48:41;;;;;;;16.20;3.08;;;11.30;99.90;;;;;;5035645;28;20099;-57
2022/10/16 04:51:08;;;;;;;16.95;2.97;;;11.30;99.90;;;;;;5035414;28;20072;-58
2022/10/16 04:53:35;;;;;;;12.27;2.10;;;11.30;99.90;;;;;;5035013;28;20065;-58
2022/10/16 04:56:02;;;;;;;16.45;2.85;;;11.30;99.90;;;;;;5035261;28;20388;-58
2022/10/16 04:58:28;;;;;;;14.63;2.45;;;11.30;99.90;;;;;;5035132;28;20522;-58
2022/10/16 05:00:55;;;;;;;17.98;2.63;;;11.30;99.90;;;;;;5017999;28;20072;-60
2022/10/16 05:03:22;;;;;;;15.27;2.53;;;11.30;99.90;;;;;;5034941;28;20046;-60
2022/10/16 05:05:48;;;;;;;18.42;2.97;;;11.20;99.90;;;;;;5034784;28;20037;-57
2022/10/16 05:08:15;;;;;;;20.25;2.92;;;11.20;99.90;;;;;;5035425;28;20072;-57
2022/10/16 05:10:42;;;;;;;23.23;2.95;;;11.20;99.90;;;;;;5034971;28;20041;-57
2022/10/16 05:13:09;;;;;;;24.90;3.90;;;11.20;99.90;;;;;;5034835;28;20045;-59
2022/10/16 05:15:35;;;;;;;14.77;2.50;;;11.20;99.90;;;;;;5034363;28;20559;-60
2022/10/16 05:18:02;;;;;;;15.52;2.45;;;11.20;99.90;;;;;;5034587;28;20132;-57
2022/10/16 05:20:29;;;;;;;16.33;2.45;;;11.20;99.90;;;;;;5034412;28;20443;-57
2022/10/16 05:22:56;;;;;;;20.25;3.20;;;11.10;99.90;;;;;;5034382;28;20041;-58
2022/10/16 05:25:22;;;;;;;15.75;3.38;;;11.10;99.90;;;;;;5034494;28;20558;-57
2022/10/16 05:27:49;;;;;;;15.02;2.42;;;11.10;99.90;;;;;;5016928;28;20490;-57
2022/10/16 05:30:16;;;;;;;13.35;2.63;;;11.10;99.90;;;;;;5034137;28;20092;-55
2022/10/16 05:32:42;;;;;;;18.70;2.92;;;11.10;99.90;;;;;;5034224;28;20041;-58
2022/10/16 05:35:09;;;;;;;14.60;2.40;;;11.10;99.90;;;;;;5034425;28;20112;-59
2022/10/16 05:37:38;;;;;;;19.60;2.80;;;11.00;99.90;;;;;;5033691;28;20512;-58
2022/10/16 05:40:05;;;;;;;18.60;2.55;;;11.00;99.90;;;;;;5034422;28;20076;-57
2022/10/16 05:42:31;;;;;;;21.20;3.35;;;11.00;99.90;;;;;;5035094;28;20107;-55
2022/10/16 05:44:58;;;;;;;17.90;2.90;;;11.00;99.90;;;;;;5034067;28;20488;-57
2022/10/16 05:47:25;;;;;;;14.48;2.75;;;11.00;99.90;;;;;;5034229;28;20120;-54
2022/10/16 05:49:52;;;;;;;20.70;2.92;;;10.90;99.90;;;;;;5034263;28;20080;-57
2022/10/16 05:52:18;;;;;;;18.85;3.40;;;10.90;99.90;;;;;;5017080;28;20132;-59
2022/10/16 05:54:45;;;;;;;17.83;2.90;;;10.90;99.90;;;;;;5033836;28;20042;-58
2022/10/16 05:57:12;;;;;;;16.67;3.08;;;10.90;99.90;;;;;;5034453;28;20120;-56
2022/10/16 05:59:39;;;;;;;15.65;3.55;;;10.90;99.90;;;;;;5033948;28;20103;-58
2022/10/16 06:02:05;;;;;;;17.30;2.95;;;10.90;99.90;;;;;;5033969;28;20132;-59
2022/10/16 06:04:32;;;;;;;16.60;2.80;;;10.80;99.90;;;;;;5033669;28;20084;-57
2022/10/16 06:07:00;;;;;;;17.10;2.92;;;10.80;99.90;;;;;;5034086;28;20045;-58
2022/10/16 06:09:27;;;;;;;13.50;2.63;;;10.80;99.90;;;;;;5034250;28;20084;-57
2022/10/16 06:11:54;;;;;;;14.38;2.95;;;10.80;99.90;;;;;;5033517;28;20493;-59
2022/10/16 06:14:21;;;;;;;21.10;3.05;;;10.80;99.90;;;;;;5033801;28;20128;-57
2022/10/16 06:16:48;;;;;;;16.25;2.80;;;10.80;99.90;;;;;;5033590;28;20053;-59
2022/10/16 06:19:16;;;;;;;17.27;3.25;;;10.70;99.90;;;;;;5034144;28;20480;-56
2022/10/16 06:21:42;;;;;;;21.33;3.08;;;10.70;99.90;;;;;;5033967;28;20041;-56
2022/10/16 06:24:09;;;;;;;19.90;2.95;;;10.70;99.90;;;;;;5034124;28;20361;-56
2022/10/16 06:26:36;;;;;;;15.43;2.80;;;10.70;99.90;;;;;;5034096;28;20137;-57
2022/10/16 06:29:02;;;;;;;14.00;2.83;;;10.70;99.90;;;;;;5033256;28;20547;-56
2022/10/16 06:31:30;;;;;;;22.83;4.40;;;10.70;99.90;;;;;;5033538;28;20124;-59
2022/10/16 06:33:57;;;;;;;15.85;3.00;;;10.70;99.90;;;;;;5033278;28;20041;-56
2022/10/16 06:36:24;;;;;;;15.65;2.72;;;10.70;99.90;;;;;;5033402;28;20085;-56
2022/10/16 06:38:51;;;;;;;14.88;2.53;;;10.60;99.90;;;;;;5033148;28;20087;-58
2022/10/16 06:41:18;;;;;;;14.80;2.83;;;10.60;99.90;;;;;;5033452;28;20128;-55
2022/10/16 06:43:45;;;;;;;16.52;3.50;;;10.60;99.90;;;;;;5033445;28;20116;-60
2022/10/16 06:46:11;;;;;;;13.45;3.08;;;10.60;99.90;;;;;;5033763;28;20049;-59
2022/10/16 06:48:38;;;;;;;21.05;3.50;;;10.60;99.90;;;;;;5034530;28;20120;-58
2022/10/16 06:51:05;;;;;;;12.20;2.55;;;10.60;99.90;;;;;;5037800;28;20045;-58
2022/10/16 06:53:32;;;;;;;20.52;2.80;;;10.60;99.90;;;;;;5037763;28;20041;-58
2022/10/16 06:56:09;;;;;;;16.10;2.50;;;10.60;99.90;;;;;;5037124;28;20061;-59
2022/10/16 06:58:36;;;;;;;10.75;2.55;;;10.60;99.90;;;;;;5037424;28;20380;-58
2022/10/16 07:01:03;;;;;;;14.20;2.88;;;10.70;99.90;;;;;;5037130;28;20048;-60
2022/10/16 07:03:29;;;;;;;19.20;3.03;;;10.60;99.90;;;;;;5037323;28;20045;-57
2022/10/16 07:05:56;;;;;;;12.80;2.50;;;10.60;99.90;;;;;;5037694;28;20084;-57
2022/10/16 07:08:23;;;;;;;18.02;3.03;;;10.60;99.90;;;;;;5037937;28;20037;-58
2022/10/16 07:10:49;;;;;;;20.67;3.03;;;10.70;99.90;;;;;;5037757;28;20037;-57
2022/10/16 07:13:16;;;;;;;20.40;2.88;;;10.70;99.90;;;;;;5037869;28;20132;-57
2022/10/16 07:15:43;;;;;;;18.10;3.67;;;10.70;99.90;;;;;;5037623;28;20492;-58
2022/10/16 07:18:09;;;;;;;16.38;3.40;;;10.70;99.90;;;;;;5037717;28;20495;-60
2022/10/16 07:20:37;;;;;;;13.88;3.22;;;10.80;99.90;;;;;;5036782;28;20037;-57
2022/10/16 07:23:04;;;;;;;15.27;3.47;;;10.70;99.90;;;;;;5036620;28;20045;-58
2022/10/16 07:25:30;;;;;;;15.88;2.63;;;10.80;99.90;;;;;;5036651;28;20048;-55
2022/10/16 07:27:57;;;;;;;14.05;3.08;;;10.80;99.90;;;;;;5036901;28;20112;-56
2022/10/16 07:30:24;;;;;;;12.05;2.42;;;10.80;99.90;;;;;;5036453;28;20128;-61
2022/10/16 07:32:50;;;;;;;15.05;2.90;;;10.80;99.90;;;;;;5037047;28;20120;-56
2022/10/16 07:35:17;;;;;;;19.35;3.22;;;10.80;99.90;;;;;;5036475;28;20045;-55
2022/10/16 07:37:44;;;;;;;15.63;2.95;;;10.80;99.90;;;;;;5036731;28;20053;-59
2022/10/16 07:40:11;;;;;;;13.25;2.50;;;10.90;99.90;;;;;;5036411;28;20492;-59
2022/10/16 07:42:37;;;;;;;16.58;3.47;;;10.90;99.90;;;;;;5036912;28;20100;-58
2022/10/16 07:45:04;;;;;;;18.65;3.65;;;10.90;99.90;;;;;;5036199;28;20452;-59
2022/10/16 07:47:31;;;;;;;18.83;3.25;;;10.90;99.90;;;;;;5036879;28;20120;-58
2022/10/16 07:49:57;;;;;;;19.65;3.58;;;11.00;99.90;;;;;;5036800;28;20095;-54
2022/10/16 07:52:24;;;;;;;14.88;3.10;;;11.00;99.90;;;;;;5036205;28;20042;-56
2022/10/16 07:54:51;;;;;;;17.55;3.75;;;11.00;99.90;;;;;;5036250;28;20080;-59
2022/10/16 07:57:19;;;;;;;18.08;3.50;;;11.00;99.90;;;;;;5036569;28;20050;-56
2022/10/16 07:59:46;;;;;;;14.65;2.70;;;11.10;99.90;;;;;;5036017;28;20056;-56
2022/10/16 08:02:13;;;;;;;18.25;2.80;;;11.10;99.90;;;;;;5035687;28;20054;-56
2022/10/16 08:04:40;;;;;;;19.02;3.88;;;11.10;99.90;;;;;;5035904;28;20128;-52
2022/10/16 08:07:06;;;;;;;19.52;3.42;;;11.20;99.90;;;;;;5035859;28;20033;-57
2022/10/16 08:09:33;;;;;;;16.42;3.90;;;11.20;99.90;;;;;;5036005;28;20499;-60
2022/10/16 08:12:00;;;;;;;15.40;4.05;;;11.30;99.90;;;;;;5018063;28;20141;-60
2022/10/16 08:14:28;;;;;;;20.98;4.32;;;11.40;99.90;;;;;;5035985;28;20107;-59
2022/10/16 08:16:54;;;;;;;17.73;4.13;;;11.40;99.90;;;;;;5035788;28;20080;-57
2022/10/16 08:19:21;;;;;;;18.48;3.80;;;11.50;99.90;;;;;;5035637;28;20554;-56
2022/10/16 08:21:48;;;;;;;17.10;3.22;;;11.60;99.90;;;;;;5018212;28;20033;-57
2022/10/16 08:24:15;;;;;;;17.83;3.63;;;11.70;99.90;;;;;;5035356;28;20033;-57
2022/10/16 08:26:42;;;;;;;13.50;2.85;;;11.80;99.90;;;;;;5035625;28;20045;-59
2022/10/16 08:29:09;;;;;;;13.82;3.08;;;11.80;99.90;;;;;;5035709;28;20038;-53
2022/10/16 08:31:35;;;;;;;17.73;3.45;;;11.90;99.90;;;;;;5036003;28;20037;-53
2022/10/16 08:34:02;;;;;;;13.48;3.10;;;11.90;99.90;;;;;;5035298;28;20401;-56
2022/10/16 08:36:29;;;;;;;14.30;3.13;;;11.90;99.90;;;;;;5035719;28;20084;-57
2022/10/16 08:38:56;;;;;;;16.27;3.10;;;12.00;99.90;;;;;;5035828;28;20087;-57
2022/10/16 08:41:24;;;;;;;13.70;3.25;;;12.00;99.90;;;;;;5035849;28;20485;-60
2022/10/16 08:43:50;;;;;;;15.35;3.80;;;12.00;99.90;;;;;;5035235;28;20053;-54
2022/10/16 08:46:17;;;;;;;14.43;3.13;;;12.00;99.90;;;;;;5035260;28;20058;-58
2022/10/16 08:48:47;;;;;;;15.18;3.47;;;12.10;99.90;;;;;;5035188;28;20110;-58
2022/10/16 08:51:13;;;;;;;12.02;3.58;;;12.10;99.90;;;;;;5035648;28;20421;-60
2022/10/16 08:53:40;;;;;;;15.02;3.70;;;12.10;99.90;;;;;;5034978;28;20041;-58
2022/10/16 08:56:07;;;;;;;12.55;2.88;;;12.20;99.90;;;;;;5035219;28;20192;-59
2022/10/16 08:58:33;;;;;;;12.93;2.92;;;12.20;99.90;;;;;;5035456;28;20073;-54
2022/10/16 09:01:00;;;;;;;15.88;3.45;;;12.20;99.90;;;;;;5034889;28;20045;-56
2022/10/16 09:03:27;;;;;;;19.35;6.30;;;12.30;99.90;;;;;;5035038;28;20046;-55
2022/10/16 09:05:54;;;;;;;20.50;3.72;;;12.30;99.90;;;;;;5034748;28;20095;-56
2022/10/16 09:08:23;;;;;;;12.13;2.70;;;12.30;99.90;;;;;;5034866;28;20065;-58
2022/10/16 09:10:50;;;;;;;17.98;2.90;;;12.30;99.90;;;;;;5035030;28;20148;-54
2022/10/16 09:13:17;;;;;;;15.30;2.95;;;12.30;99.90;;;;;;5034400;28;20128;-56
2022/10/16 09:15:44;;;;;;;19.70;3.47;;;12.40;99.90;;;;;;5034371;28;20132;-53
2022/10/16 09:18:11;;;;;;;15.38;2.90;;;12.40;99.90;;;;;;5034406;28;20133;-56
2022/10/16 09:20:37;;;;;;;14.73;4.20;;;12.40;99.90;;;;;;5034657;28;20084;-57
2022/10/16 09:23:04;;;;;;;15.95;3.38;;;12.40;99.90;;;;;;5034825;28;20469;-58
2022/10/16 09:25:31;;;;;;;13.63;2.95;;;12.50;99.90;;;;;;5034840;28;20045;-57
2022/10/16 09:27:58;;;;;;;15.27;3.83;;;12.50;99.90;;;;;;5034858;28;20049;-57
2022/10/16 09:30:24;;;;;;;12.52;3.45;;;12.60;99.90;;;;;;5034322;28;20428;-59
2022/10/16 09:32:51;;;;;;;12.73;3.10;;;12.60;99.90;;;;;;5034176;28;20068;-59
2022/10/16 09:35:18;;;;;;;15.48;3.00;;;12.60;99.90;;;;;;5034221;28;20490;-58
2022/10/16 09:37:45;;;;;;;14.02;3.28;;;12.70;99.90;;;;;;5034348;28;20058;-59
2022/10/16 09:40:12;;;;;;;14.23;2.85;;;12.70;99.90;;;;;;5034311;28;20100;-60
2022/10/16 09:42:38;;;;;;;13.90;2.95;;;12.80;99.90;;;;;;5033939;28;20075;-56
2022/10/16 09:45:05;;;;;;;17.13;2.63;;;12.80;99.90;;;;;;5033966;28;20124;-56
2022/10/16 09:47:32;;;;;;;16.52;3.22;;;12.80;99.90;;;;;;5015842;28;20099;-58
2022/10/16 09:50:01;;;;;;;13.55;2.90;;;12.90;99.90;;;;;;5034323;28;20120;-58
2022/10/16 09:52:28;;;;;;;19.58;3.80;;;12.90;99.90;;;;;;5034028;28;20041;-56
2022/10/16 09:54:58;;;;;;;13.05;2.80;;;13.00;99.90;;;;;;5017105;28;20069;-56
2022/10/16 09:57:24;;;;;;;12.82;3.00;;;13.00;99.90;;;;;;5033625;28;20106;-58
2022/10/16 09:59:52;;;;;;;15.60;3.45;;;13.00;99.90;;;;;;5033777;28;20042;-53
2022/10/16 10:02:18;;;;;;;17.38;4.53;;;13.10;99.90;;;;;;5033601;28;20073;-57
2022/10/16 10:04:45;;;;;;;18.95;4.35;;;13.10;99.90;;;;;;5033779;28;20037;-57
2022/10/16 10:07:12;;;;;;;11.68;2.95;;;13.10;99.90;;;;;;5034209;28;20121;-59
2022/10/16 10:09:39;;;;;;;13.85;2.20;;;13.20;99.90;;;;;;5016370;28;20061;-57
2022/10/16 10:12:06;;;;;;;14.60;2.78;;;13.20;99.90;;;;;;5033690;28;20034;-62
2022/10/16 10:14:33;;;;;;;19.30;3.67;;;13.30;99.90;;;;;;5033735;28;20037;-59
2022/10/16 10:17:00;;;;;;;14.18;2.90;;;13.30;99.90;;;;;;5034105;28;20045;-57
2022/10/16 10:19:26;;;;;;;11.25;2.45;;;13.50;99.90;;;;;;5033755;28;20374;-55
2022/10/16 10:21:57;;;;;;;18.50;3.35;;;13.60;99.90;;;;;;5033784;28;20053;-56
2022/10/16 10:24:24;;;;;;;15.80;3.60;;;13.70;99.90;;;;;;5032617;28;20046;-53
2022/10/16 10:26:51;;;;;;;15.57;4.00;;;13.80;99.90;;;;;;5015525;28;20140;-58
2022/10/16 10:29:17;;;;;;;10.15;2.05;;;14.00;99.90;;;;;;5033133;28;20120;-59
2022/10/16 10:31:44;;;;;;;12.68;3.35;;;14.10;99.90;;;;;;5033308;28;20045;-59
2022/10/16 10:34:11;;;;;;;10.68;2.53;;;14.20;99.90;;;;;;5033294;28;20116;-58
2022/10/16 10:36:37;;;;;;;12.00;2.67;;;14.30;99.90;;;;;;5033671;28;20424;-59
2022/10/16 10:39:04;;;;;;;15.75;3.58;;;14.40;99.90;;;;;;5033655;28;20528;-57
2022/10/16 10:41:31;;;;;;;12.82;2.92;;;14.50;99.90;;;;;;5033360;28;20049;-57
2022/10/16 10:43:58;;;;;;;13.57;2.97;;;14.60;99.90;;;;;;5033534;28;20092;-58
2022/10/16 10:46:24;;;;;;;18.98;5.22;;;14.70;99.90;;;;;;5033157;28;20069;-57
2022/10/16 10:48:51;;;;;;;11.73;2.83;;;14.80;99.90;;;;;;5033790;28;20041;-57
2022/10/16 10:51:20;;;;;;;12.77;3.78;;;14.90;99.90;;;;;;5015970;28;20503;-58
2022/10/16 10:53:47;;;;;;;8.13;2.10;;;14.90;99.90;;;;;;5032951;28;20033;-61
2022/10/16 10:56:14;;;;;;;10.80;2.58;;;15.00;99.60;;;;;;5033030;28;20121;-60
2022/10/16 10:58:41;;;;;;;11.00;2.30;;;15.10;99.60;;;;;;5015825;28;20049;-60
2022/10/16 11:01:08;;;;;;;9.93;2.28;;;15.10;99.40;;;;;;5033187;28;20069;-60
2022/10/16 11:03:38;;;;;;;11.77;2.20;;;15.10;99.70;;;;;;5032825;28;20046;-57
2022/10/16 11:06:05;;;;;;;10.60;2.00;;;15.20;99.30;;;;;;5015196;28;20081;-59
2022/10/16 11:08:32;;;;;;;9.15;2.08;;;15.30;99.60;;;;;;5033099;28;20053;-60
2022/10/16 11:11:01;;;;;;;16.33;3.13;;;15.30;99.30;;;;;;5033177;28;20052;-59
2022/10/16 11:13:27;;;;;;;61.53;20.92;;;15.30;99.50;;;;;;5033292;28;20092;-61
2022/10/16 11:15:54;;;;;;;19.45;5.80;;;15.40;99.90;;;;;;5033092;28;20069;-58
2022/10/16 11:18:22;;;;;;;13.65;3.03;;;15.40;99.60;;;;;;5015131;28;20514;-59
2022/10/16 11:20:49;;;;;;;33.72;11.77;;;15.50;99.50;;;;;;5015342;28;20099;-57
2022/10/16 11:23:16;;;;;;;12.40;3.60;;;15.60;99.90;;;;;;5015285;28;20050;-59
2022/10/16 11:25:43;;;;;;;11.43;2.50;;;15.60;99.20;;;;;;5015646;28;20038;-59
2022/10/16 11:28:09;;;;;;;11.68;2.75;;;15.70;99.80;;;;;;5033245;28;20041;-60
2022/10/16 11:30:36;;;;;;;18.48;3.58;;;15.80;99.30;;;;;;5014499;28;20046;-60
2022/10/16 11:33:06;;;;;;;12.60;3.00;;;15.80;99.40;;;;;;5032922;28;20199;-60
2022/10/16 11:35:33;;;;;;;14.00;2.90;;;15.90;99.10;;;;;;5035427;28;20080;-59
2022/10/16 11:38:00;;;;;;;14.07;2.60;;;15.90;99.30;;;;;;5036715;28;20144;-60
2022/10/16 11:40:27;;;;;;;13.65;2.70;;;15.90;99.10;;;;;;5036251;28;20037;-58
2022/10/16 11:42:54;;;;;;;12.45;2.67;;;15.90;99.30;;;;;;5019032;28;20045;-59
2022/10/16 11:45:20;;;;;;;18.83;3.80;;;15.90;99.30;;;;;;5036036;28;20087;-59
2022/10/16 11:47:47;;;;;;;13.05;3.10;;;16.00;99.20;;;;;;5036943;28;20037;-59
2022/10/16 11:50:29;;;;;;;14.45;3.85;;;16.00;98.80;;;;;;5036582;28;20045;-57
2022/10/16 11:52:56;;;;;;;14.73;4.78;;;16.10;98.60;;;;;;5036182;28;20029;-58
2022/10/16 11:55:23;;;;;;;16.45;3.70;;;16.10;98.80;;;;;;5036194;28;20045;-58
2022/10/16 11:57:50;;;;;;;17.30;3.60;;;16.20;98.60;;;;;;5036030;28;20124;-61
2022/10/16 12:00:16;;;;;;;19.30;6.57;;;16.30;98.40;;;;;;5036192;28;20050;-61
2022/10/16 12:02:43;;;;;;;37.50;9.57;;;16.30;98.80;;;;;;5036045;28;20058;-59
2022/10/16 12:05:10;;;;;;;29.52;9.73;;;16.30;98.70;;;;;;5036198;28;20042;-58
2022/10/16 12:07:36;;;;;;;13.93;4.63;;;16.30;98.90;;;;;;5035787;28;20073;-58
2022/10/16 12:10:03;;;;;;;17.33;4.68;;;16.40;98.40;;;;;;5036372;28;20515;-58
2022/10/16 12:12:30;;;;;;;16.92;4.45;;;16.40;98.40;;;;;;5036470;28;20068;-60
2022/10/16 12:15:02;;;;;;;22.40;7.28;;;16.40;98.30;;;;;;5036050;28;20034;-58
2022/10/16 12:17:45;;;;;;;31.52;8.73;;;16.50;98.20;;;;;;5035835;28;20034;-59
2022/10/16 12:20:12;;;;;;;26.05;5.75;;;16.50;98.60;;;;;;5035912;28;20048;-60
2022/10/16 12:22:38;;;;;;;39.85;6.40;;;16.60;98.70;;;;;;5036223;28;20038;-59
2022/10/16 12:25:07;;;;;;;36.22;6.38;;;16.60;98.70;;;;;;5035621;28;20061;-59
2022/10/16 12:27:35;;;;;;;42.22;7.60;;;16.60;99.00;;;;;;5035616;28;20115;-57
2022/10/16 12:30:02;;;;;;;300.30;21.98;;;16.60;99.00;;;;;;5035207;28;20100;-59
2022/10/16 12:32:29;;;;;;;24.90;5.25;;;16.60;99.70;;;;;;5035755;28;20473;-58
2022/10/16 12:35:14;;;;;;;17.63;4.47;;;16.50;99.00;;;;;;5035248;28;20041;-59